createdAt,value
2018-12-17T00:00:23.072Z,12.30
2018-12-17T00:02:52.680Z,12.80
2018-12-17T00:05:22.264Z,11.57
2018-12-17T00:07:52.025Z,12.40
2018-12-17T00:10:21.498Z,11.00
2018-12-17T00:12:51.002Z,11.90
2018-12-17T00:15:20.928Z,10.50
2018-12-17T00:17:50.647Z,11.07
2018-12-17T00:20:20.064Z,11.40
2018-12-17T00:22:49.626Z,11.33
2018-12-17T00:25:19.179Z,10.50
2018-12-17T00:27:48.626Z,10.93
2018-12-17T00:30:18.025Z,10.30
2018-12-17T00:32:48.136Z,9.50
2018-12-17T00:35:17.596Z,10.97
2018-12-17T00:37:47.192Z,11.30
2018-12-17T00:40:17.220Z,10.72
2018-12-17T00:42:46.822Z,10.77
2018-12-17T00:45:16.479Z,9.70
2018-12-17T00:47:46.180Z,10.43
2018-12-17T00:50:15.711Z,8.80
2018-12-17T00:52:45.262Z,10.60
2018-12-17T00:55:14.839Z,10.28
2018-12-17T00:57:44.312Z,9.70
2018-12-17T01:00:14.261Z,8.80
2018-12-17T01:02:44.191Z,9.30
2018-12-17T01:05:13.705Z,8.43
2018-12-17T01:07:43.316Z,8.83
2018-12-17T01:10:12.942Z,9.60
2018-12-17T01:12:42.555Z,10.53
2018-12-17T01:15:12.187Z,11.07
2018-12-17T01:17:41.592Z,9.93
2018-12-17T01:20:11.707Z,9.23
2018-12-17T01:22:41.128Z,9.60
2018-12-17T01:25:10.666Z,8.30
2018-12-17T01:27:40.306Z,8.20
2018-12-17T01:30:09.842Z,8.67
2018-12-17T01:32:39.358Z,8.73
2018-12-17T01:35:08.982Z,10.43
2018-12-17T01:37:38.402Z,9.50
2018-12-17T01:40:08.013Z,9.67
2018-12-17T01:42:37.706Z,9.53
2018-12-17T01:45:07.446Z,9.60
2018-12-17T01:47:37.141Z,9.10
2018-12-17T01:50:07.220Z,8.07
2018-12-17T01:52:36.998Z,8.60
2018-12-17T01:55:06.670Z,9.53
2018-12-17T01:57:36.306Z,9.40
2018-12-17T02:00:06.893Z,8.00
2018-12-17T02:02:36.610Z,9.40
2018-12-17T02:05:06.620Z,9.30
2018-12-17T02:07:36.474Z,9.15
2018-12-17T02:10:06.190Z,8.73
2018-12-17T02:12:35.727Z,8.87
2018-12-17T02:15:05.971Z,9.05
2018-12-17T02:17:35.709Z,10.47
2018-12-17T02:20:05.752Z,8.95
2018-12-17T02:22:35.243Z,9.90
2018-12-17T02:25:04.955Z,9.30
2018-12-17T02:27:34.503Z,8.35
2018-12-17T02:30:04.810Z,8.27
2018-12-17T02:32:34.132Z,9.07
2018-12-17T02:35:03.912Z,8.43
2018-12-17T02:37:33.484Z,9.47
2018-12-17T02:40:03.463Z,9.73
2018-12-17T02:42:32.939Z,9.03
2018-12-17T02:45:02.665Z,8.77
2018-12-17T02:47:32.259Z,8.77
2018-12-17T02:50:01.870Z,8.25
2018-12-17T02:52:31.567Z,8.17
2018-12-17T02:55:01.349Z,7.60
2018-12-17T02:57:32.470Z,7.50
2018-12-17T03:00:02.105Z,7.47
2018-12-17T03:02:31.825Z,7.20
2018-12-17T03:05:01.830Z,7.53
2018-12-17T03:07:31.483Z,6.75
2018-12-17T03:10:01.011Z,7.20
2018-12-17T03:12:30.671Z,7.47
2018-12-17T03:15:00.385Z,7.13
2018-12-17T03:17:29.863Z,8.68
2018-12-17T03:19:59.551Z,8.65
2018-12-17T03:22:29.128Z,8.00
2018-12-17T03:24:58.817Z,7.08
2018-12-17T03:27:28.371Z,7.50
2018-12-17T03:29:58.081Z,8.20
2018-12-17T03:32:27.852Z,7.40
2018-12-17T03:34:57.453Z,8.03
2018-12-17T03:37:27.190Z,8.30
2018-12-17T03:39:56.755Z,7.60
2018-12-17T03:42:26.398Z,6.70
2018-12-17T03:44:56.204Z,7.10
2018-12-17T03:47:25.765Z,8.45
2018-12-17T03:49:55.415Z,7.85
2018-12-17T03:52:25.045Z,7.22
2018-12-17T03:54:54.469Z,7.22
2018-12-17T03:57:24.065Z,7.80
2018-12-17T03:59:53.690Z,7.93
2018-12-17T04:02:23.151Z,7.55
2018-12-17T04:04:52.912Z,7.75
2018-12-17T04:07:22.878Z,6.60
2018-12-17T04:09:52.729Z,6.80
2018-12-17T04:12:22.406Z,8.00
2018-12-17T04:14:52.122Z,7.70
2018-12-17T04:17:21.653Z,7.70
2018-12-17T04:19:51.322Z,8.00
2018-12-17T04:22:22.092Z,8.13
2018-12-17T04:24:51.771Z,6.73
2018-12-17T04:27:21.389Z,6.80
2018-12-17T04:29:50.984Z,7.25
2018-12-17T04:32:20.553Z,7.27
2018-12-17T04:34:50.200Z,7.23
2018-12-17T04:37:19.878Z,7.10
2018-12-17T04:39:49.604Z,7.20
2018-12-17T04:42:19.070Z,6.77
2018-12-17T04:44:48.647Z,7.60
2018-12-17T04:47:18.115Z,8.90
2018-12-17T04:49:47.883Z,7.90
2018-12-17T04:52:17.358Z,8.03
2018-12-17T04:54:46.973Z,8.10
2018-12-17T04:57:16.807Z,7.07
2018-12-17T04:59:46.389Z,8.50
2018-12-17T05:02:15.887Z,7.70
2018-12-17T05:04:45.783Z,7.53
2018-12-17T05:07:15.450Z,8.10
2018-12-17T05:09:45.113Z,7.47
2018-12-17T05:12:14.889Z,7.90
2018-12-17T05:14:44.535Z,7.65
2018-12-17T05:17:14.056Z,8.65
2018-12-17T05:19:43.876Z,7.90
2018-12-17T05:22:13.284Z,7.50
2018-12-17T05:24:42.773Z,7.50
2018-12-17T05:27:12.495Z,8.20
2018-12-17T05:29:42.318Z,7.13
2018-12-17T05:32:11.863Z,7.33
2018-12-17T05:34:41.314Z,8.28
2018-12-17T05:37:11.094Z,8.85
2018-12-17T05:39:40.471Z,9.03
2018-12-17T05:42:09.877Z,8.78
2018-12-17T05:44:39.544Z,8.80
2018-12-17T05:47:08.955Z,9.15
2018-12-17T05:49:38.468Z,9.50
2018-12-17T05:52:07.931Z,8.98
2018-12-17T05:54:37.418Z,8.20
2018-12-17T05:57:06.986Z,9.00
2018-12-17T05:59:36.714Z,9.45
2018-12-17T06:02:06.170Z,9.33
2018-12-17T06:04:35.904Z,10.40
2018-12-17T06:07:05.786Z,9.97
2018-12-17T06:09:35.787Z,8.73
2018-12-17T06:12:05.412Z,10.03
2018-12-17T06:14:34.999Z,10.80
2018-12-17T06:17:04.635Z,10.47
2018-12-17T06:19:34.397Z,10.75
2018-12-17T06:22:03.996Z,9.57
2018-12-17T06:24:33.449Z,10.30
2018-12-17T06:27:04.526Z,8.80
2018-12-17T06:29:35.611Z,9.10
2018-12-17T06:32:05.562Z,9.75
2018-12-17T06:34:35.314Z,8.83
2018-12-17T06:37:04.950Z,9.30
2018-12-17T06:39:34.613Z,9.53
2018-12-17T06:42:04.092Z,10.73
2018-12-17T06:44:33.713Z,9.97
2018-12-17T06:47:03.274Z,9.70
2018-12-17T06:49:32.848Z,10.90
2018-12-17T06:52:02.445Z,10.58
2018-12-17T06:54:32.183Z,9.25
2018-12-17T06:57:01.899Z,10.60
2018-12-17T06:59:31.592Z,10.53
2018-12-17T07:02:01.444Z,10.90
2018-12-17T07:04:31.020Z,10.20
2018-12-17T07:07:00.524Z,11.73
2018-12-17T07:09:30.054Z,11.77
2018-12-17T07:11:59.739Z,10.83
2018-12-17T07:14:36.298Z,12.53
2018-12-17T07:17:01.207Z,12.07
2018-12-17T07:19:30.903Z,11.73
2018-12-17T07:22:00.644Z,11.00
2018-12-17T07:24:30.306Z,12.53
2018-12-17T07:26:59.935Z,12.33
2018-12-17T07:29:29.515Z,11.50
2018-12-17T07:31:59.064Z,11.30
2018-12-17T07:34:29.136Z,12.07
2018-12-17T07:36:59.334Z,11.50
2018-12-17T07:39:31.083Z,12.90
2018-12-17T07:42:00.743Z,12.30
2018-12-17T07:44:30.487Z,13.97
2018-12-17T07:47:00.090Z,12.47
2018-12-17T07:49:29.829Z,11.80
2018-12-17T07:51:59.411Z,12.70
2018-12-17T07:54:29.080Z,13.80
2018-12-17T07:56:58.694Z,13.37
2018-12-17T07:59:28.548Z,15.03
2018-12-17T08:01:59.154Z,14.30
2018-12-17T08:04:29.132Z,14.80
2018-12-17T08:06:58.681Z,13.23
2018-12-17T08:09:28.317Z,13.10
2018-12-17T08:11:58.087Z,14.15
2018-12-17T08:14:27.816Z,13.95
2018-12-17T08:16:57.626Z,12.88
2018-12-17T08:19:28.942Z,12.77
2018-12-17T08:21:58.762Z,12.57
2018-12-17T08:24:28.689Z,13.45
2018-12-17T08:26:58.446Z,14.40
2018-12-17T08:29:27.924Z,15.53
2018-12-17T08:31:57.560Z,16.00
2018-12-17T08:34:27.209Z,13.32
2018-12-17T08:36:56.798Z,14.00
2018-12-17T08:39:26.471Z,13.48
2018-12-17T08:41:56.213Z,15.13
2018-12-17T08:44:25.864Z,15.43
2018-12-17T08:46:55.505Z,16.62
2018-12-17T08:49:25.077Z,13.95
2018-12-17T08:51:54.800Z,14.93
2018-12-17T08:54:24.521Z,15.10
2018-12-17T08:56:54.170Z,16.23
2018-12-17T08:59:23.880Z,14.97
2018-12-17T09:01:53.658Z,15.53
2018-12-17T09:04:23.187Z,15.78
2018-12-17T09:06:52.668Z,16.70
2018-12-17T09:09:22.100Z,15.08
2018-12-17T09:11:51.906Z,14.80
2018-12-17T09:14:21.710Z,15.68
2018-12-17T09:16:51.446Z,15.98
2018-12-17T09:19:20.888Z,15.58
2018-12-17T09:21:50.635Z,15.40
2018-12-17T09:24:20.205Z,15.43
2018-12-17T09:26:49.938Z,13.90
2018-12-17T09:29:19.394Z,13.32
2018-12-17T09:31:48.848Z,15.18
2018-12-17T09:34:18.457Z,14.43
2018-12-17T09:36:48.066Z,13.63
2018-12-17T09:39:17.568Z,14.60
2018-12-17T09:41:47.338Z,14.50
2018-12-17T09:44:17.234Z,14.67
2018-12-17T09:46:46.914Z,15.20
2018-12-17T09:49:16.566Z,13.33
2018-12-17T09:51:46.227Z,13.27
2018-12-17T09:54:15.977Z,13.30
2018-12-17T09:56:45.687Z,13.80
2018-12-17T09:59:15.366Z,12.70
2018-12-17T10:01:46.757Z,15.27
2018-12-17T10:04:16.196Z,13.27
2018-12-17T10:06:45.914Z,12.03
2018-12-17T10:09:15.679Z,12.77
2018-12-17T10:11:45.273Z,12.77
2018-12-17T10:14:14.881Z,15.30
2018-12-17T10:16:44.715Z,14.40
2018-12-17T10:19:14.402Z,15.43
2018-12-17T10:21:43.986Z,14.18
2018-12-17T10:24:13.794Z,13.93
2018-12-17T10:26:43.296Z,14.10
2018-12-17T10:29:12.999Z,12.23
2018-12-17T10:31:42.504Z,11.77
2018-12-17T10:34:12.152Z,12.88
2018-12-17T10:36:41.828Z,11.40
2018-12-17T10:39:11.458Z,11.88
2018-12-17T10:41:41.136Z,11.80
2018-12-17T10:44:10.799Z,11.30
2018-12-17T10:46:40.311Z,11.45
2018-12-17T10:49:09.756Z,11.43
2018-12-17T10:51:39.586Z,11.55
2018-12-17T10:54:09.173Z,11.93
2018-12-17T10:56:38.938Z,10.60
2018-12-17T10:59:08.420Z,12.03
2018-12-17T11:01:43.242Z,11.95
2018-12-17T11:04:17.053Z,10.70
2018-12-17T11:06:46.683Z,11.43
2018-12-17T11:09:16.402Z,11.90
2018-12-17T11:11:45.873Z,11.57
2018-12-17T11:14:15.491Z,11.68
2018-12-17T11:16:45.017Z,11.47
2018-12-17T11:19:14.780Z,11.93
2018-12-17T11:21:44.497Z,9.87
2018-12-17T11:24:14.390Z,11.70
2018-12-17T11:26:44.044Z,10.97
2018-12-17T11:29:13.642Z,11.90
2018-12-17T11:31:43.145Z,11.33
2018-12-17T11:34:12.820Z,10.00
2018-12-17T11:36:42.626Z,10.97
2018-12-17T11:39:12.171Z,10.60
2018-12-17T11:41:41.783Z,10.00
2018-12-17T11:44:11.516Z,11.50
2018-12-17T11:46:42.292Z,11.63
2018-12-17T11:49:11.954Z,9.87
2018-12-17T11:51:41.576Z,9.67
2018-12-17T11:54:11.171Z,9.27
2018-12-17T11:58:59.694Z,9.67
2018-12-17T12:01:29.803Z,8.50
2018-12-17T12:03:59.351Z,8.58
2018-12-17T12:06:29.164Z,9.13
2018-12-17T12:08:58.725Z,7.90
2018-12-17T12:11:28.489Z,8.98
2018-12-17T12:13:58.246Z,10.70
2018-12-17T12:16:27.876Z,9.70
2018-12-17T12:18:57.629Z,11.33
2018-12-17T12:21:27.071Z,10.30
2018-12-17T12:23:56.761Z,12.10
2018-12-17T12:26:26.388Z,9.90
2018-12-17T12:28:56.070Z,9.60
2018-12-17T12:31:25.785Z,10.53
2018-12-17T12:33:55.249Z,12.40
2018-12-17T12:36:24.897Z,13.53
2018-12-17T12:38:55.122Z,10.87
2018-12-17T12:41:24.747Z,10.90
2018-12-17T12:43:54.386Z,12.43
2018-12-17T12:46:24.059Z,13.30
2018-12-17T12:48:53.726Z,13.13
2018-12-17T12:51:23.448Z,12.10
2018-12-17T12:53:52.974Z,9.83
2018-12-17T12:56:22.551Z,9.10
2018-12-17T12:58:52.217Z,11.17
2018-12-17T13:01:21.772Z,11.03
2018-12-17T13:03:51.357Z,9.67
2018-12-17T13:06:20.759Z,8.90
2018-12-17T13:08:50.396Z,9.57
2018-12-17T13:11:20.080Z,8.93
2018-12-17T13:13:49.714Z,8.10
2018-12-17T13:16:19.615Z,8.80
2018-12-17T13:18:49.102Z,9.27
2018-12-17T13:21:18.787Z,9.10
2018-12-17T13:23:48.148Z,9.47
2018-12-17T13:26:17.999Z,10.10
2018-12-17T13:28:47.585Z,9.47
2018-12-17T13:31:17.310Z,8.80
2018-12-17T13:33:46.818Z,8.27
2018-12-17T13:36:16.430Z,7.53
2018-12-17T13:38:46.033Z,8.27
2018-12-17T13:41:15.676Z,8.87
2018-12-17T13:43:45.340Z,7.90
2018-12-17T13:46:15.019Z,8.40
2018-12-17T13:48:44.800Z,7.73
2018-12-17T13:51:19.861Z,8.50
2018-12-17T13:53:49.623Z,7.37
2018-12-17T13:56:19.333Z,8.10
2018-12-17T13:58:49.380Z,10.23
2018-12-17T14:01:21.952Z,12.10
2018-12-17T14:03:50.926Z,10.20
2018-12-17T14:06:20.911Z,8.40
2018-12-17T14:08:50.805Z,7.53
2018-12-17T14:11:20.486Z,7.80
2018-12-17T14:13:50.144Z,8.90
2018-12-17T14:16:21.778Z,7.57
2018-12-17T14:18:56.488Z,8.90
2018-12-17T14:21:31.293Z,8.10
2018-12-17T14:24:00.882Z,9.27
2018-12-17T14:26:30.614Z,9.07
2018-12-17T14:29:00.275Z,8.70
2018-12-17T14:31:30.247Z,8.60
2018-12-17T14:33:59.887Z,8.87
2018-12-17T14:36:29.647Z,9.07
2018-12-17T14:39:00.691Z,9.70
2018-12-17T14:41:30.159Z,9.40
2018-12-17T14:44:04.024Z,8.63
2018-12-17T14:46:37.789Z,8.87
2018-12-17T14:49:07.503Z,9.63
2018-12-17T14:51:37.222Z,9.00
2018-12-17T14:54:06.980Z,7.97
2018-12-17T14:56:36.653Z,7.53
2018-12-17T14:59:06.514Z,8.00
2018-12-17T15:01:36.301Z,7.73
2018-12-17T15:04:06.174Z,8.53
2018-12-17T15:06:36.144Z,7.93
2018-12-17T15:09:07.653Z,7.50
2018-12-17T15:11:37.360Z,7.67
2018-12-17T15:14:07.132Z,7.50
2018-12-17T15:16:36.752Z,8.00
2018-12-17T15:19:06.740Z,7.57
2018-12-17T15:21:37.015Z,8.23
2018-12-17T15:24:06.639Z,8.77
2018-12-17T15:26:36.235Z,8.10
2018-12-17T15:29:05.898Z,8.30
2018-12-17T15:31:42.796Z,8.13
2018-12-17T15:34:07.833Z,8.97
2018-12-17T15:36:37.417Z,9.83
2018-12-17T15:39:07.087Z,8.80
2018-12-17T15:41:36.582Z,7.83
2018-12-17T15:44:06.268Z,8.57
2018-12-17T15:46:35.661Z,8.47
2018-12-17T15:49:05.311Z,10.03
2018-12-17T15:51:36.348Z,8.70
2018-12-17T15:54:06.492Z,9.80
2018-12-17T15:56:36.086Z,9.10
2018-12-17T15:59:05.643Z,9.73
2018-12-17T16:01:35.182Z,10.03
2018-12-17T16:04:04.623Z,9.70
2018-12-17T16:06:34.356Z,10.90
2018-12-17T16:09:05.874Z,10.80
2018-12-17T16:11:35.837Z,9.90
2018-12-17T16:14:05.659Z,10.37
2018-12-17T16:16:35.485Z,10.43
2018-12-17T16:19:05.540Z,10.25
2018-12-17T16:21:35.293Z,9.10
2018-12-17T16:24:05.243Z,8.13
2018-12-17T16:26:34.927Z,8.17
2018-12-17T16:29:04.840Z,8.43
2018-12-17T16:31:34.446Z,9.30
2018-12-17T16:34:04.039Z,9.20
2018-12-17T16:36:34.215Z,9.93
2018-12-17T16:39:05.203Z,9.93
2018-12-17T16:41:35.016Z,9.30
2018-12-17T16:44:04.840Z,8.90
2018-12-17T16:46:34.696Z,10.53
2018-12-17T16:49:04.856Z,9.10
2018-12-17T16:51:34.720Z,9.10
2018-12-17T16:54:04.623Z,9.07
2018-12-17T16:56:34.346Z,9.03
2018-12-17T16:59:04.036Z,10.23
2018-12-17T17:01:33.836Z,10.37
2018-12-17T17:04:03.693Z,9.70
2018-12-17T17:06:33.299Z,9.90
2018-12-17T17:09:03.015Z,9.17
2018-12-17T17:11:32.496Z,9.63
2018-12-17T17:14:02.398Z,9.53
2018-12-17T17:16:32.034Z,9.17
2018-12-17T17:19:01.877Z,10.00
2018-12-17T17:21:31.507Z,11.70
2018-12-17T17:24:01.442Z,9.33
2018-12-17T17:26:31.088Z,8.57
2018-12-17T17:29:00.720Z,9.70
2018-12-17T17:31:30.404Z,9.90
2018-12-17T17:34:00.072Z,11.00
2018-12-17T17:36:29.923Z,11.43
2018-12-17T17:39:01.626Z,12.10
2018-12-17T17:41:31.505Z,12.40
2018-12-17T17:44:01.078Z,13.07
2018-12-17T17:46:30.652Z,12.10
2018-12-17T17:49:00.451Z,10.83
2018-12-17T17:51:30.334Z,13.07
2018-12-17T17:54:00.045Z,12.70
2018-12-17T17:56:29.904Z,12.00
2018-12-17T17:58:59.571Z,13.13
2018-12-17T18:01:29.461Z,15.07
2018-12-17T18:03:59.416Z,17.00
2018-12-17T18:06:29.094Z,18.30
2018-12-17T18:08:59.053Z,13.63
2018-12-17T18:11:28.489Z,12.03
2018-12-17T18:13:58.194Z,11.83
2018-12-17T18:16:28.104Z,12.17
2018-12-17T18:18:58.988Z,12.60
2018-12-17T18:21:28.934Z,11.80
2018-12-17T18:23:58.968Z,11.17
2018-12-17T18:26:28.672Z,12.90
2018-12-17T18:28:58.311Z,14.03
2018-12-17T18:31:28.332Z,12.17
2018-12-17T18:33:58.198Z,13.45
2018-12-17T18:36:28.743Z,12.80
2018-12-17T18:38:59.681Z,12.67
2018-12-17T18:41:29.485Z,12.10
2018-12-17T18:43:59.117Z,12.53
2018-12-17T18:46:28.795Z,11.77
2018-12-17T18:48:58.440Z,12.80
2018-12-17T18:51:28.091Z,12.07
2018-12-17T18:53:57.443Z,12.43
2018-12-17T18:56:27.230Z,12.10
2018-12-17T18:58:57.158Z,12.10
2018-12-17T19:01:27.097Z,11.93
2018-12-17T19:03:56.583Z,11.50
2018-12-17T19:06:26.643Z,12.43
2018-12-17T19:08:56.408Z,11.60
2018-12-17T19:11:26.066Z,11.63
2018-12-17T19:13:55.627Z,12.50
2018-12-17T19:16:25.098Z,11.90
2018-12-17T19:18:54.787Z,11.33
2018-12-17T19:21:24.463Z,11.03
2018-12-17T19:23:53.902Z,12.23
2018-12-17T19:26:23.383Z,11.03
2018-12-17T19:28:53.153Z,10.85
2018-12-17T19:31:22.882Z,12.53
2018-12-17T19:33:52.318Z,12.13
2018-12-17T19:36:23.119Z,13.70
2018-12-17T19:38:52.719Z,12.83
2018-12-17T19:41:22.353Z,11.77
2018-12-17T19:43:51.892Z,11.63
2018-12-17T19:46:21.573Z,11.30
2018-12-17T19:48:51.349Z,11.60
2018-12-17T19:51:21.544Z,11.10
2018-12-17T19:53:51.313Z,11.50
2018-12-17T19:56:20.904Z,12.00
2018-12-17T19:58:50.580Z,11.87
2018-12-17T20:01:20.158Z,12.13
2018-12-17T20:03:49.859Z,11.70
2018-12-17T20:06:19.588Z,13.13
2018-12-17T20:08:49.266Z,13.67
2018-12-17T20:11:19.128Z,12.00
2018-12-17T20:13:48.669Z,13.07
2018-12-17T20:16:18.315Z,12.60
2018-12-17T20:18:47.921Z,13.30
2018-12-17T20:21:17.423Z,12.77
2018-12-17T20:23:46.785Z,12.80
2018-12-17T20:26:16.477Z,12.47
2018-12-17T20:28:45.986Z,13.00
2018-12-17T20:31:15.752Z,11.67
2018-12-17T20:33:45.452Z,13.00
2018-12-17T20:36:14.854Z,12.17
2018-12-17T20:38:44.460Z,12.15
2018-12-17T20:41:14.106Z,12.33
2018-12-17T20:43:43.776Z,12.10
2018-12-17T20:46:13.427Z,13.17
2018-12-17T20:48:43.168Z,13.57
2018-12-17T20:51:12.680Z,13.37
2018-12-17T20:53:42.171Z,12.07
2018-12-17T20:56:11.935Z,12.27
2018-12-17T20:58:41.548Z,13.03
2018-12-17T21:01:11.155Z,14.37
2018-12-17T21:03:41.014Z,12.03
2018-12-17T21:06:10.761Z,13.00
2018-12-17T21:08:40.620Z,12.13
2018-12-17T21:11:10.376Z,12.87
2018-12-17T21:13:40.243Z,13.70
2018-12-17T21:16:10.004Z,13.13
2018-12-17T21:18:39.761Z,12.30
2018-12-17T21:21:09.281Z,12.60
2018-12-17T21:23:39.476Z,12.13
2018-12-17T21:26:09.067Z,12.93
2018-12-17T21:28:38.704Z,11.83
2018-12-17T21:31:08.216Z,12.87
2018-12-17T21:33:37.806Z,12.70
2018-12-17T21:36:07.459Z,12.60
2018-12-17T21:38:37.096Z,12.60
2018-12-17T21:41:06.723Z,13.40
2018-12-17T21:43:36.556Z,12.53
2018-12-17T21:46:06.228Z,13.10
2018-12-17T21:48:35.978Z,13.58
2018-12-17T21:51:05.460Z,13.07
2018-12-17T21:53:35.080Z,13.13
2018-12-17T21:56:04.824Z,12.07
2018-12-17T21:58:34.447Z,12.90
2018-12-17T22:01:04.035Z,12.80
2018-12-17T22:03:33.523Z,12.40
2018-12-17T22:06:03.162Z,11.60
2018-12-17T22:08:32.693Z,13.20
2018-12-17T22:11:02.272Z,12.83
2018-12-17T22:13:32.015Z,12.20
2018-12-17T22:16:01.769Z,11.90
2018-12-17T22:18:31.431Z,13.03
2018-12-17T22:21:01.179Z,14.27
2018-12-17T22:23:30.899Z,12.20
2018-12-17T22:26:02.308Z,12.73
2018-12-17T22:28:31.970Z,13.10
2018-12-17T22:31:01.427Z,13.77
2018-12-17T22:33:31.025Z,13.07
2018-12-17T22:36:00.757Z,13.40
2018-12-17T22:38:30.495Z,11.60
2018-12-17T22:41:00.182Z,13.30
2018-12-17T22:43:29.687Z,13.13
2018-12-17T22:45:59.306Z,12.83
2018-12-17T22:48:28.838Z,13.47
2018-12-17T22:50:58.476Z,12.00
2018-12-17T22:53:28.054Z,13.23
2018-12-17T22:55:57.639Z,12.73
2018-12-17T22:58:27.240Z,12.67
2018-12-17T23:00:56.938Z,12.77
2018-12-17T23:03:26.642Z,13.20
2018-12-17T23:05:56.511Z,13.50
2018-12-17T23:08:25.981Z,12.73
2018-12-17T23:11:06.572Z,14.07
2018-12-17T23:13:47.215Z,13.10
2018-12-17T23:16:27.999Z,15.17
2018-12-17T23:18:56.480Z,12.80
2018-12-17T23:21:25.921Z,13.10
2018-12-17T23:23:55.629Z,13.50
2018-12-17T23:26:25.282Z,13.13
2018-12-17T23:28:54.996Z,13.13
2018-12-17T23:31:24.642Z,13.30
2018-12-17T23:33:54.303Z,13.30
2018-12-17T23:36:24.022Z,13.63
2018-12-17T23:38:53.742Z,14.97
2018-12-17T23:41:23.378Z,13.13
2018-12-17T23:43:53.070Z,14.20
2018-12-17T23:46:22.593Z,14.50
2018-12-17T23:48:52.079Z,14.30
2018-12-17T23:51:21.649Z,13.93
2018-12-17T23:53:52.526Z,15.00
2018-12-17T23:56:22.261Z,13.58
2018-12-17T23:58:51.997Z,14.37
